sensor_id;sensor_type;location;lat;lon;timestamp;pressure;altitude;pressure_sealevel;temperature;humidity
63399;BME280;49533;-34.520;150.798;2024-03-23T00:52:04;101288.66;;;23.74;55.43
63399;BME280;49533;-34.520;150.798;2024-03-23T00:54:31;101158.50;;;22.94;55.40
63399;BME280;49533;-34.520;150.798;2024-03-23T00:56:58;101224.50;;;23.46;55.50
63399;BME280;49533;-34.520;150.798;2024-03-23T00:59:25;101288.41;;;23.86;55.30
63399;BME280;49533;-34.520;150.798;2024-03-23T01:01:55;101241.34;;;23.63;55.46
63399;BME280;49533;-34.520;150.798;2024-03-23T01:04:22;101289.63;;;23.93;55.33
63399;BME280;49533;-34.520;150.798;2024-03-23T01:06:50;101247.75;;;23.71;55.48
63399;BME280;49533;-34.520;150.798;2024-03-23T01:09:17;101233.88;;;23.68;55.85
63399;BME280;49533;-34.520;150.798;2024-03-23T01:11:44;101280.91;;;23.91;55.51
63399;BME280;49533;-34.520;150.798;2024-03-23T01:14:11;101290.06;;;23.95;55.79
63399;BME280;49533;-34.520;150.798;2024-03-23T01:16:38;101291.25;;;23.94;55.79
63399;BME280;49533;-34.520;150.798;2024-03-23T01:19:05;101238.19;;;23.65;55.60
63399;BME280;49533;-34.520;150.798;2024-03-23T01:21:32;101284.91;;;23.93;55.72
63399;BME280;49533;-34.520;150.798;2024-03-23T01:23:59;101264.19;;;23.83;55.56
63399;BME280;49533;-34.520;150.798;2024-03-23T01:26:27;101222.25;;;23.58;55.53
63399;BME280;49533;-34.520;150.798;2024-03-23T01:28:54;101265.06;;;23.91;55.19
63399;BME280;49533;-34.520;150.798;2024-03-23T01:31:21;101283.34;;;23.96;55.63
63399;BME280;49533;-34.520;150.798;2024-03-23T01:33:51;101273.81;;;23.93;55.53
63399;BME280;49533;-34.520;150.798;2024-03-23T01:36:18;101278.53;;;23.93;55.29
63399;BME280;49533;-34.520;150.798;2024-03-23T01:38:46;101267.00;;;23.87;55.74
63399;BME280;49533;-34.520;150.798;2024-03-23T01:41:13;101220.72;;;23.64;55.65
63399;BME280;49533;-34.520;150.798;2024-03-23T01:43:40;101060.31;;;22.62;55.53
63399;BME280;49533;-34.520;150.798;2024-03-23T01:46:07;101263.09;;;23.92;55.67
63399;BME280;49533;-34.520;150.798;2024-03-23T01:48:34;101258.72;;;23.91;55.47
63399;BME280;49533;-34.520;150.798;2024-03-23T01:51:01;101206.38;;;23.55;55.60
63399;BME280;49533;-34.520;150.798;2024-03-23T01:53:29;101250.44;;;23.98;56.17
63399;BME280;49533;-34.520;150.798;2024-03-23T01:55:56;101227.03;;;23.95;56.27
63399;BME280;49533;-34.520;150.798;2024-03-23T01:58:24;101234.66;;;24.05;56.15
63399;BME280;49533;-34.520;150.798;2024-03-23T02:00:51;101186.72;;;23.71;55.45
63399;BME280;49533;-34.520;150.798;2024-03-23T02:03:27;101240.19;;;24.02;56.02
63399;BME280;49533;-34.520;150.798;2024-03-23T02:05:56;101229.00;;;23.95;55.51
63399;BME280;49533;-34.520;150.798;2024-03-23T02:08:24;101234.19;;;23.96;55.98
63399;BME280;49533;-34.520;150.798;2024-03-23T02:10:51;101190.28;;;23.68;56.03
63399;BME280;49533;-34.520;150.798;2024-03-23T02:13:19;101245.84;;;24.13;56.21
63399;BME280;49533;-34.520;150.798;2024-03-23T02:15:46;101249.81;;;24.15;56.29
63399;BME280;49533;-34.520;150.798;2024-03-23T02:18:14;101215.63;;;24.04;56.80
63399;BME280;49533;-34.520;150.798;2024-03-23T02:20:41;101245.06;;;24.16;56.66
63399;BME280;49533;-34.520;150.798;2024-03-23T02:23:18;101178.94;;;23.80;56.64
63399;BME280;49533;-34.520;150.798;2024-03-23T02:25:45;101210.84;;;24.01;56.57
63399;BME280;49533;-34.520;150.798;2024-03-23T02:28:12;101188.91;;;23.89;57.25
63399;BME280;49533;-34.520;150.798;2024-03-23T02:30:39;101226.44;;;24.16;57.46
63399;BME280;49533;-34.520;150.798;2024-03-23T02:33:07;101244.28;;;24.15;57.26
63399;BME280;49533;-34.520;150.798;2024-03-23T02:35:34;101233.50;;;24.06;57.82
63399;BME280;49533;-34.520;150.798;2024-03-23T02:38:01;101181.25;;;23.75;57.25
63399;BME280;49533;-34.520;150.798;2024-03-23T02:40:28;101210.78;;;23.97;57.78
63399;BME280;49533;-34.520;150.798;2024-03-23T02:42:55;101132.66;;;23.54;57.67
63399;BME280;49533;-34.520;150.798;2024-03-23T02:45:23;101212.34;;;23.95;57.56
63399;BME280;49533;-34.520;150.798;2024-03-23T02:47:50;101242.00;;;24.24;57.45
63399;BME280;49533;-34.520;150.798;2024-03-23T02:50:20;101195.28;;;23.93;57.72
63399;BME280;49533;-34.520;150.798;2024-03-23T02:52:48;101232.44;;;24.22;57.29
63399;BME280;49533;-34.520;150.798;2024-03-23T02:55:15;101223.72;;;24.23;57.64
63399;BME280;49533;-34.520;150.798;2024-03-23T02:57:43;101124.06;;;23.66;57.64
63399;BME280;49533;-34.520;150.798;2024-03-23T03:00:10;101205.97;;;24.32;57.70
63399;BME280;49533;-34.520;150.798;2024-03-23T03:02:37;101194.50;;;24.37;57.56
63399;BME280;49533;-34.520;150.798;2024-03-23T03:05:05;101181.81;;;24.43;58.02
63399;BME280;49533;-34.520;150.798;2024-03-23T03:07:33;101179.84;;;24.43;57.17
63399;BME280;49533;-34.520;150.798;2024-03-23T03:10:00;101132.06;;;24.16;57.60
63399;BME280;49533;-34.520;150.798;2024-03-23T03:12:27;101178.72;;;24.48;57.53
63399;BME280;49533;-34.520;150.798;2024-03-23T03:14:54;101187.06;;;24.48;57.03
63399;BME280;49533;-34.520;150.798;2024-03-23T03:17:21;101187.81;;;24.45;57.03
63399;BME280;49533;-34.520;150.798;2024-03-23T03:19:49;101151.84;;;24.11;56.62
63399;BME280;49533;-34.520;150.798;2024-03-23T03:22:22;101174.16;;;24.25;56.30
63399;BME280;49533;-34.520;150.798;2024-03-23T03:24:50;101184.13;;;24.30;56.84
63399;BME280;49533;-34.520;150.798;2024-03-23T03:27:17;101189.72;;;24.37;56.97
63399;BME280;49533;-34.520;150.798;2024-03-23T03:29:44;101177.81;;;24.37;56.81
63399;BME280;49533;-34.520;150.798;2024-03-23T03:32:11;101180.63;;;24.40;57.09
63399;BME280;49533;-34.520;150.798;2024-03-23T03:34:38;101137.25;;;24.21;57.45
63399;BME280;49533;-34.520;150.798;2024-03-23T03:37:06;101158.41;;;24.40;57.16
63399;BME280;49533;-34.520;150.798;2024-03-23T03:39:33;101134.44;;;24.18;56.78
63399;BME280;49533;-34.520;150.798;2024-03-23T03:42:00;101125.19;;;24.03;56.96
63399;BME280;49533;-34.520;150.798;2024-03-23T03:44:28;101111.28;;;23.96;57.16
63399;BME280;49533;-34.520;150.798;2024-03-23T03:46:55;101161.91;;;24.34;57.03
63399;BME280;49533;-34.520;150.798;2024-03-23T03:49:22;101159.53;;;24.32;56.80
63399;BME280;49533;-34.520;150.798;2024-03-23T03:51:49;101129.66;;;24.18;56.84
63399;BME280;49533;-34.520;150.798;2024-03-23T03:54:16;101153.19;;;24.32;56.04
63399;BME280;49533;-34.520;150.798;2024-03-23T03:56:43;101156.31;;;24.26;56.36
63399;BME280;49533;-34.520;150.798;2024-03-23T03:59:10;101168.97;;;24.20;56.60
63399;BME280;49533;-34.520;150.798;2024-03-23T04:01:38;101064.94;;;23.59;56.87
63399;BME280;49533;-34.520;150.798;2024-03-23T04:04:05;101158.69;;;24.24;56.85
63399;BME280;49533;-34.520;150.798;2024-03-23T04:06:32;101123.25;;;24.03;56.58
63399;BME280;49533;-34.520;150.798;2024-03-23T04:09:00;101124.03;;;24.04;56.25
63399;BME280;49533;-34.520;150.798;2024-03-23T04:11:27;100949.03;;;22.90;56.20
63399;BME280;49533;-34.520;150.798;2024-03-23T04:13:54;101080.19;;;23.76;56.17
63399;BME280;49533;-34.520;150.798;2024-03-23T04:16:35;101102.84;;;23.85;56.07
63399;BME280;49533;-34.520;150.798;2024-03-23T04:19:02;101104.88;;;23.88;55.82
63399;BME280;49533;-34.520;150.798;2024-03-23T04:21:30;101159.41;;;24.14;56.38
63399;BME280;49533;-34.520;150.798;2024-03-23T04:23:57;101158.63;;;24.14;56.79
63399;BME280;49533;-34.520;150.798;2024-03-23T04:26:24;101158.97;;;24.12;56.76
63399;BME280;49533;-34.520;150.798;2024-03-23T04:28:51;101142.19;;;23.98;56.87
63399;BME280;49533;-34.520;150.798;2024-03-23T04:31:18;101149.06;;;24.11;57.17
63399;BME280;49533;-34.520;150.798;2024-03-23T04:33:45;101142.31;;;24.08;57.21
63399;BME280;49533;-34.520;150.798;2024-03-23T04:36:13;101139.13;;;24.06;57.13
63399;BME280;49533;-34.520;150.798;2024-03-23T04:38:40;101110.03;;;23.90;57.48
63399;BME280;49533;-34.520;150.798;2024-03-23T04:41:07;101106.03;;;23.87;57.11
63399;BME280;49533;-34.520;150.798;2024-03-23T04:43:35;101139.88;;;24.03;57.20
63399;BME280;49533;-34.520;150.798;2024-03-23T04:46:02;101094.84;;;23.76;57.65
63399;BME280;49533;-34.520;150.798;2024-03-23T04:48:29;101091.63;;;23.71;57.66
63399;BME280;49533;-34.520;150.798;2024-03-23T04:50:57;101093.19;;;23.68;57.54
63399;BME280;49533;-34.520;150.798;2024-03-23T04:53:24;101073.56;;;23.47;57.09
63399;BME280;49533;-34.520;150.798;2024-03-23T04:55:55;101155.28;;;23.94;57.10
63399;BME280;49533;-34.520;150.798;2024-03-23T04:58:23;101130.94;;;23.76;57.06
63399;BME280;49533;-34.520;150.798;2024-03-23T05:00:57;101107.41;;;23.63;57.24
63399;BME280;49533;-34.520;150.798;2024-03-23T05:03:24;101079.09;;;23.47;57.36
63399;BME280;49533;-34.520;150.798;2024-03-23T05:05:51;101093.78;;;23.47;57.55
63399;BME280;49533;-34.520;150.798;2024-03-23T05:08:19;101129.84;;;23.88;57.72
63399;BME280;49533;-34.520;150.798;2024-03-23T05:10:46;101102.66;;;23.67;57.51
63399;BME280;49533;-34.520;150.798;2024-03-23T05:13:13;101141.25;;;23.79;57.84
63399;BME280;49533;-34.520;150.798;2024-03-23T05:15:40;101130.09;;;23.72;57.72
63399;BME280;49533;-34.520;150.798;2024-03-23T05:18:07;101066.94;;;23.17;57.71
63399;BME280;49533;-34.520;150.798;2024-03-23T05:20:35;101119.63;;;23.55;57.70
63399;BME280;49533;-34.520;150.798;2024-03-23T05:23:02;101057.09;;;23.23;57.49
63399;BME280;49533;-34.520;150.798;2024-03-23T05:25:29;101139.25;;;23.76;57.29
63399;BME280;49533;-34.520;150.798;2024-03-23T05:27:56;101134.78;;;23.68;57.47
63399;BME280;49533;-34.520;150.798;2024-03-23T05:30:23;101047.88;;;23.12;57.67
63399;BME280;49533;-34.520;150.798;2024-03-23T05:32:51;101061.38;;;23.14;57.69
63399;BME280;49533;-34.520;150.798;2024-03-23T05:35:18;101096.44;;;23.36;57.38
63399;BME280;49533;-34.520;150.798;2024-03-23T05:37:45;101143.03;;;23.61;57.56
63399;BME280;49533;-34.520;150.798;2024-03-23T05:40:12;101150.94;;;23.59;57.89
63399;BME280;49533;-34.520;150.798;2024-03-23T05:42:42;101099.06;;;23.22;57.88
63399;BME280;49533;-34.520;150.798;2024-03-23T05:45:09;101038.50;;;22.90;57.90
63399;BME280;49533;-34.520;150.798;2024-03-23T05:47:37;101089.97;;;23.25;57.79
63399;BME280;49533;-34.520;150.798;2024-03-23T05:50:05;101099.06;;;23.22;57.35
63399;BME280;49533;-34.520;150.798;2024-03-23T05:52:32;101105.81;;;23.25;57.20
63399;BME280;49533;-34.520;150.798;2024-03-23T05:54:59;101165.13;;;23.50;57.46
63399;BME280;49533;-34.520;150.798;2024-03-23T05:57:27;101169.06;;;23.49;57.50
63399;BME280;49533;-34.520;150.798;2024-03-23T05:59:54;101167.47;;;23.48;57.82
63399;BME280;49533;-34.520;150.798;2024-03-23T06:02:21;101132.81;;;23.31;57.43
63399;BME280;49533;-34.520;150.798;2024-03-23T06:04:49;101127.56;;;23.22;57.46
63399;BME280;49533;-34.520;150.798;2024-03-23T06:07:16;101161.47;;;23.42;57.85
63399;BME280;49533;-34.520;150.798;2024-03-23T06:09:43;101112.41;;;23.13;58.23
63399;BME280;49533;-34.520;150.798;2024-03-23T06:12:10;101169.38;;;23.40;58.33
63399;BME280;49533;-34.520;150.798;2024-03-23T06:14:37;101162.25;;;23.39;58.47
63399;BME280;49533;-34.520;150.798;2024-03-23T06:17:04;101158.69;;;23.42;58.28
63399;BME280;49533;-34.520;150.798;2024-03-23T06:19:32;101152.38;;;23.42;57.79
63399;BME280;49533;-34.520;150.798;2024-03-23T06:21:59;101147.63;;;23.46;57.78
63399;BME280;49533;-34.520;150.798;2024-03-23T06:24:26;101141.28;;;23.42;57.95
63399;BME280;49533;-34.520;150.798;2024-03-23T06:26:53;101143.19;;;23.38;57.97
63399;BME280;49533;-34.520;150.798;2024-03-23T06:29:20;101066.19;;;22.90;58.01
63399;BME280;49533;-34.520;150.798;2024-03-23T06:31:53;101119.69;;;23.25;57.26
63399;BME280;49533;-34.520;150.798;2024-03-23T06:34:21;101091.00;;;23.10;57.47
63399;BME280;49533;-34.520;150.798;2024-03-23T06:36:49;101128.47;;;23.30;57.45
63399;BME280;49533;-34.520;150.798;2024-03-23T06:39:16;101145.19;;;23.37;57.51
63399;BME280;49533;-34.520;150.798;2024-03-23T06:41:52;101149.88;;;23.33;57.59
63399;BME280;49533;-34.520;150.798;2024-03-23T06:44:20;101098.06;;;23.04;57.25
63399;BME280;49533;-34.520;150.798;2024-03-23T06:46:47;101042.94;;;22.65;57.49
63399;BME280;49533;-34.520;150.798;2024-03-23T06:49:15;101132.41;;;23.29;57.39
63399;BME280;49533;-34.520;150.798;2024-03-23T06:51:42;101134.31;;;23.21;57.57
63399;BME280;49533;-34.520;150.798;2024-03-23T06:54:09;101145.28;;;23.48;57.07
63399;BME280;49533;-34.520;150.798;2024-03-23T06:56:37;101147.72;;;23.53;56.82
63399;BME280;49533;-34.520;150.798;2024-03-23T06:59:04;101093.88;;;23.20;56.68
63399;BME280;49533;-34.520;150.798;2024-03-23T07:01:31;101144.66;;;23.65;56.66
63399;BME280;49533;-34.520;150.798;2024-03-23T07:03:58;101077.25;;;23.20;56.48
63399;BME280;49533;-34.520;150.798;2024-03-23T07:06:25;101119.25;;;23.60;56.65
63399;BME280;49533;-34.520;150.798;2024-03-23T07:08:55;101089.06;;;23.51;56.39
63399;BME280;49533;-34.520;150.798;2024-03-23T07:11:23;101127.78;;;23.78;56.37
63399;BME280;49533;-34.520;150.798;2024-03-23T07:13:51;101071.13;;;23.41;56.24
63399;BME280;49533;-34.520;150.798;2024-03-23T07:16:18;101129.38;;;23.82;56.37
63399;BME280;49533;-34.520;150.798;2024-03-23T07:18:46;101138.53;;;23.83;56.12
63399;BME280;49533;-34.520;150.798;2024-03-23T07:21:14;101132.97;;;23.83;56.12
63399;BME280;49533;-34.520;150.798;2024-03-23T07:23:44;101136.16;;;23.85;56.26
63399;BME280;49533;-34.520;150.798;2024-03-23T07:26:12;101093.00;;;23.50;56.23
63399;BME280;49533;-34.520;150.798;2024-03-23T07:28:39;101145.69;;;23.87;55.69
63399;BME280;49533;-34.520;150.798;2024-03-23T07:31:13;101153.63;;;23.89;55.82
63399;BME280;49533;-34.520;150.798;2024-03-23T07:33:45;101166.31;;;23.90;55.78
63399;BME280;49533;-34.520;150.798;2024-03-23T07:36:13;101169.50;;;23.89;55.57
63399;BME280;49533;-34.520;150.798;2024-03-23T07:38:43;101074.66;;;23.35;55.77
63399;BME280;49533;-34.520;150.798;2024-03-23T07:41:17;101092.91;;;23.39;55.85
63399;BME280;49533;-34.520;150.798;2024-03-23T07:43:46;101171.50;;;23.92;56.01
63399;BME280;49533;-34.520;150.798;2024-03-23T07:46:14;101169.09;;;23.90;55.74
63399;BME280;49533;-34.520;150.798;2024-03-23T07:48:42;101161.47;;;23.80;55.94
63399;BME280;49533;-34.520;150.798;2024-03-23T07:51:21;101178.63;;;23.93;55.77
63399;BME280;49533;-34.520;150.798;2024-03-23T07:53:49;101198.06;;;23.93;55.77
63399;BME280;49533;-34.520;150.798;2024-03-23T07:56:16;101124.66;;;23.46;55.63
63399;BME280;49533;-34.520;150.798;2024-03-23T07:58:48;101128.63;;;23.44;55.67
63399;BME280;49533;-34.520;150.798;2024-03-23T08:01:16;101206.81;;;23.95;55.50
63399;BME280;49533;-34.520;150.798;2024-03-23T08:03:45;101216.31;;;23.94;55.67
63399;BME280;49533;-34.520;150.798;2024-03-23T08:06:14;101216.31;;;23.94;55.58
63399;BME280;49533;-34.520;150.798;2024-03-23T08:08:43;101220.69;;;23.95;55.64
63399;BME280;49533;-34.520;150.798;2024-03-23T08:11:11;101201.16;;;23.84;55.48
63399;BME280;49533;-34.520;150.798;2024-03-23T08:13:42;101219.53;;;23.96;55.47
63399;BME280;49533;-34.520;150.798;2024-03-23T08:16:09;101122.56;;;23.35;55.47
63399;BME280;49533;-34.520;150.798;2024-03-23T08:18:40;101202.06;;;23.95;55.66
63399;BME280;49533;-34.520;150.798;2024-03-23T08:21:07;101187.66;;;23.82;55.78
63399;BME280;49533;-34.520;150.798;2024-03-23T08:23:35;101148.94;;;23.56;55.66
63399;BME280;49533;-34.520;150.798;2024-03-23T08:26:12;101146.16;;;23.56;55.37
63399;BME280;49533;-34.520;150.798;2024-03-23T08:28:40;101191.28;;;23.86;55.31
63399;BME280;49533;-34.520;150.798;2024-03-23T08:31:09;101175.22;;;23.69;55.39
63399;BME280;49533;-34.520;150.798;2024-03-23T08:33:37;101188.06;;;23.84;55.21
63399;BME280;49533;-34.520;150.798;2024-03-23T08:36:07;101202.88;;;23.96;55.44
63399;BME280;49533;-34.520;150.798;2024-03-23T08:38:34;101200.47;;;23.94;55.36
63399;BME280;49533;-34.520;150.798;2024-03-23T08:41:03;101151.72;;;23.59;55.32
63399;BME280;49533;-34.520;150.798;2024-03-23T08:43:32;101212.78;;;23.97;55.41
63399;BME280;49533;-34.520;150.798;2024-03-23T08:46:10;101207.59;;;23.95;55.51
63399;BME280;49533;-34.520;150.798;2024-03-23T08:48:39;101113.47;;;23.38;55.23
63399;BME280;49533;-34.520;150.798;2024-03-23T08:51:08;101204.44;;;23.93;55.24
63399;BME280;49533;-34.520;150.798;2024-03-23T08:53:36;101208.78;;;23.94;55.42
63399;BME280;49533;-34.520;150.798;2024-03-23T08:56:04;101219.09;;;23.94;55.23
63399;BME280;49533;-34.520;150.798;2024-03-23T08:58:36;101218.31;;;23.93;55.22
63399;BME280;49533;-34.520;150.798;2024-03-23T09:01:08;101221.88;;;23.94;55.38
63399;BME280;49533;-34.520;150.798;2024-03-23T09:03:36;101137.66;;;23.38;55.27
63399;BME280;49533;-34.520;150.798;2024-03-23T09:06:08;101213.13;;;23.92;55.15
63399;BME280;49533;-34.520;150.798;2024-03-23T09:08:36;101193.25;;;23.86;55.33
63399;BME280;49533;-34.520;150.798;2024-03-23T09:11:11;101179.13;;;23.64;55.05
63399;BME280;49533;-34.520;150.798;2024-03-23T09:13:39;101212.75;;;23.93;55.22
63399;BME280;49533;-34.520;150.798;2024-03-23T09:16:08;101171.88;;;23.53;55.37
63399;BME280;49533;-34.520;150.798;2024-03-23T09:18:36;101250.00;;;23.92;55.44
63399;BME280;49533;-34.520;150.798;2024-03-23T09:21:04;101251.97;;;23.92;55.11
63399;BME280;49533;-34.520;150.798;2024-03-23T09:23:37;101257.09;;;23.90;55.06
63399;BME280;49533;-34.520;150.798;2024-03-23T09:26:05;101251.56;;;23.90;55.31
63399;BME280;49533;-34.520;150.798;2024-03-23T09:28:35;101235.59;;;23.79;55.01
63399;BME280;49533;-34.520;150.798;2024-03-23T09:31:06;101242.75;;;23.80;55.08
63399;BME280;49533;-34.520;150.798;2024-03-23T09:33:36;101255.09;;;23.86;55.38
63399;BME280;49533;-34.520;150.798;2024-03-23T09:36:04;101242.75;;;23.80;55.04
63399;BME280;49533;-34.520;150.798;2024-03-23T09:38:32;101253.53;;;23.89;54.97
63399;BME280;49533;-34.520;150.798;2024-03-23T09:40:59;101190.41;;;23.45;54.98
63399;BME280;49533;-34.520;150.798;2024-03-23T09:43:26;101245.91;;;23.79;55.19
63399;BME280;49533;-34.520;150.798;2024-03-23T09:45:54;101247.34;;;23.69;55.20
63399;BME280;49533;-34.520;150.798;2024-03-23T09:48:21;101265.78;;;23.84;54.94
63399;BME280;49533;-34.520;150.798;2024-03-23T09:50:48;101267.38;;;23.85;54.90
63399;BME280;49533;-34.520;150.798;2024-03-23T09:53:15;101270.97;;;23.86;55.19
63399;BME280;49533;-34.520;150.798;2024-03-23T09:55:44;101251.81;;;23.77;54.83
63399;BME280;49533;-34.520;150.798;2024-03-23T09:58:17;101274.53;;;23.86;54.87
63399;BME280;49533;-34.520;150.798;2024-03-23T10:00:44;101286.81;;;23.85;54.81
63399;BME280;49533;-34.520;150.798;2024-03-23T10:03:12;101282.44;;;23.84;55.09
63399;BME280;49533;-34.520;150.798;2024-03-23T10:05:39;101275.28;;;23.83;55.07
63399;BME280;49533;-34.520;150.798;2024-03-23T10:10:43;101277.22;;;23.79;55.14
63399;BME280;49533;-34.520;150.798;2024-03-23T10:13:11;101279.63;;;23.81;54.86
63399;BME280;49533;-34.520;150.798;2024-03-23T10:15:55;101289.09;;;23.80;54.99
63399;BME280;49533;-34.520;150.798;2024-03-23T10:18:23;101290.72;;;23.81;54.95
63399;BME280;49533;-34.520;150.798;2024-03-23T10:21:08;101248.34;;;23.54;54.92
63399;BME280;49533;-34.520;150.798;2024-03-23T10:23:38;101219.63;;;23.35;55.01
63399;BME280;49533;-34.520;150.798;2024-03-23T10:26:25;101263.69;;;23.74;54.91
63399;BME280;49533;-34.520;150.798;2024-03-23T10:29:02;101270.09;;;23.78;54.80
63399;BME280;49533;-34.520;150.798;2024-03-23T10:31:34;101252.44;;;23.63;54.99
63399;BME280;49533;-34.520;150.798;2024-03-23T10:34:03;101216.41;;;23.33;54.96
63399;BME280;49533;-34.520;150.798;2024-03-23T10:36:30;101238.78;;;23.48;55.18
63399;BME280;49533;-34.520;150.798;2024-03-23T10:38:58;101284.28;;;23.73;55.21
63399;BME280;49533;-34.520;150.798;2024-03-23T10:41:31;101242.78;;;23.50;54.95
63399;BME280;49533;-34.520;150.798;2024-03-23T10:43:59;101287.78;;;23.70;54.97
63399;BME280;49533;-34.520;150.798;2024-03-23T10:46:26;101229.13;;;23.34;54.84
63399;BME280;49533;-34.520;150.798;2024-03-23T10:48:53;101279.47;;;23.70;55.26
63399;BME280;49533;-34.520;150.798;2024-03-23T10:51:20;101281.50;;;23.73;54.98
63399;BME280;49533;-34.520;150.798;2024-03-23T10:53:48;101247.81;;;23.41;54.84
63399;BME280;49533;-34.520;150.798;2024-03-23T10:56:16;101268.97;;;23.53;55.33
63399;BME280;49533;-34.520;150.798;2024-03-23T10:58:49;101299.69;;;23.71;55.21
63399;BME280;49533;-34.520;150.798;2024-03-23T11:01:16;101285.38;;;23.69;55.01
63399;BME280;49533;-34.520;150.798;2024-03-23T11:03:47;101248.69;;;23.49;55.16
63399;BME280;49533;-34.520;150.798;2024-03-23T11:06:39;101282.25;;;23.70;55.06
63399;BME280;49533;-34.520;150.798;2024-03-23T11:09:43;101285.75;;;23.67;55.09
63399;BME280;49533;-34.520;150.798;2024-03-23T11:15:03;101288.13;;;23.65;55.14
63399;BME280;49533;-34.520;150.798;2024-03-23T11:17:31;101241.69;;;23.28;55.34
63399;BME280;49533;-34.520;150.798;2024-03-23T11:20:03;101296.03;;;23.63;55.26
63399;BME280;49533;-34.520;150.798;2024-03-23T11:22:42;101288.06;;;23.61;55.16
63399;BME280;49533;-34.520;150.798;2024-03-23T11:25:20;101277.78;;;23.62;55.20
63399;BME280;49533;-34.520;150.798;2024-03-23T11:27:55;101285.28;;;23.61;55.19
63399;BME280;49533;-34.520;150.798;2024-03-23T11:30:27;101299.16;;;23.61;54.99
63399;BME280;49533;-34.520;150.798;2024-03-23T11:32:58;101304.69;;;23.58;55.17
63399;BME280;49533;-34.520;150.798;2024-03-23T11:38:12;101274.44;;;23.49;55.26
63399;BME280;49533;-34.520;150.798;2024-03-23T11:40:50;101197.03;;;23.03;55.05
63399;BME280;49533;-34.520;150.798;2024-03-23T11:43:19;101274.94;;;23.55;55.18
63399;BME280;49533;-34.520;150.798;2024-03-23T11:45:52;101278.88;;;23.54;55.24
63399;BME280;49533;-34.520;150.798;2024-03-23T11:48:22;101263.13;;;23.31;55.15
63399;BME280;49533;-34.520;150.798;2024-03-23T11:50:54;101276.06;;;23.50;54.95
63399;BME280;49533;-34.520;150.798;2024-03-23T11:53:22;101277.72;;;23.55;55.21
63399;BME280;49533;-34.520;150.798;2024-03-23T11:55:57;101259.28;;;23.39;55.23
63399;BME280;49533;-34.520;150.798;2024-03-23T11:58:26;101280.84;;;23.53;55.25
63399;BME280;49533;-34.520;150.798;2024-03-23T12:01:03;101274.50;;;23.53;54.98
63399;BME280;49533;-34.520;150.798;2024-03-23T12:03:32;101272.88;;;23.52;55.25
63399;BME280;49533;-34.520;150.798;2024-03-23T12:06:03;101275.25;;;23.50;55.20
63399;BME280;49533;-34.520;150.798;2024-03-23T12:08:35;101100.81;;;22.43;55.29
63399;BME280;49533;-34.520;150.798;2024-03-23T12:11:15;101277.63;;;23.48;55.16
63399;BME280;49533;-34.520;150.798;2024-03-23T12:13:44;101277.63;;;23.48;55.15
63399;BME280;49533;-34.520;150.798;2024-03-23T12:16:20;101262.84;;;23.40;55.00
63399;BME280;49533;-34.520;150.798;2024-03-23T12:18:48;101278.78;;;23.47;55.22
63399;BME280;49533;-34.520;150.798;2024-03-23T12:21:17;101232.47;;;23.17;55.10
63399;BME280;49533;-34.520;150.798;2024-03-23T12:23:45;101214.94;;;23.09;55.38
63399;BME280;49533;-34.520;150.798;2024-03-23T12:26:13;101264.50;;;23.44;55.15
63399;BME280;49533;-34.520;150.798;2024-03-23T12:28:40;101258.13;;;23.44;55.25
63399;BME280;49533;-34.520;150.798;2024-03-23T12:31:07;101177.03;;;22.90;54.92
63399;BME280;49533;-34.520;150.798;2024-03-23T12:33:38;101261.66;;;23.41;55.26
63399;BME280;49533;-34.520;150.798;2024-03-23T12:36:05;101232.06;;;23.18;55.18
63399;BME280;49533;-34.520;150.798;2024-03-23T12:38:32;101260.09;;;23.40;55.07
63399;BME280;49533;-34.520;150.798;2024-03-23T12:40:59;101259.66;;;23.38;55.15
63399;BME280;49533;-34.520;150.798;2024-03-23T12:43:26;101178.66;;;22.91;55.19
63399;BME280;49533;-34.520;150.798;2024-03-23T12:45:54;101204.22;;;23.08;55.23
63399;BME280;49533;-34.520;150.798;2024-03-23T12:48:21;101207.53;;;23.20;55.25
63399;BME280;49533;-34.520;150.798;2024-03-23T12:50:48;101190.69;;;23.03;55.21
63399;BME280;49533;-34.520;150.798;2024-03-23T12:53:15;101177.25;;;23.05;55.28
63399;BME280;49533;-34.520;150.798;2024-03-23T12:55:43;100995.22;;;21.88;55.05
63399;BME280;49533;-34.520;150.798;2024-03-23T12:58:10;101226.75;;;23.36;55.30
63399;BME280;49533;-34.520;150.798;2024-03-23T13:00:37;101163.56;;;22.89;55.22
63399;BME280;49533;-34.520;150.798;2024-03-23T13:03:04;101196.69;;;23.08;55.30
63399;BME280;49533;-34.520;150.798;2024-03-23T13:05:31;101227.50;;;23.33;55.28
63399;BME280;49533;-34.520;150.798;2024-03-23T13:07:58;101229.13;;;23.34;55.17
63399;BME280;49533;-34.520;150.798;2024-03-23T13:10:25;101227.09;;;23.31;55.26
63399;BME280;49533;-34.520;150.798;2024-03-23T13:12:53;101171.28;;;23.03;55.19
63399;BME280;49533;-34.520;150.798;2024-03-23T13:15:20;101185.25;;;23.10;55.37
63399;BME280;49533;-34.520;150.798;2024-03-23T13:17:47;101195.31;;;23.21;55.41
63399;BME280;49533;-34.520;150.798;2024-03-23T13:20:14;101210.03;;;23.29;55.33
63399;BME280;49533;-34.520;150.798;2024-03-23T13:22:41;101170.00;;;22.96;55.46
63399;BME280;49533;-34.520;150.798;2024-03-23T13:25:08;101201.72;;;23.29;55.38
63399;BME280;49533;-34.520;150.798;2024-03-23T13:27:35;101193.31;;;23.22;55.20